Time;durP1;ratioP1;P1;durP2;ratioP2;P2;SDS_P1;SDS_P2;PMS_P1;PMS_P2;Temp;Humidity;BMP_temperature;BMP_pressure;BME280_temperature;BME280_humidity;BME280_pressure;Samples;Min_cycle;Max_cycle;Signal;HPM_P1;HPM_P2
2022/12/02 00:00:27;;;;;;;103.57;34.53;;;;;;;3.15;95.54;102258.44;5023458;28;20691;-73
2022/12/02 00:02:57;;;;;;;108.72;36.75;;;;;;;3.19;94.91;102244.56;5037847;28;20091;-73
2022/12/02 00:05:33;;;;;;;99.88;35.70;;;;;;;3.12;95.55;102249.13;5023311;28;20043;-73
2022/12/02 00:08:01;;;;;;;101.32;36.63;;;;;;;3.17;95.13;102246.38;5015890;28;20453;-73
2022/12/02 00:10:32;;;;;;;107.30;34.92;;;;;;;3.12;96.09;102243.19;5012800;28;20482;-73
2022/12/02 00:13:16;;;;;;;100.50;37.45;;;;;;;3.09;96.04;102233.09;5032465;28;20026;-73
2022/12/02 00:15:44;;;;;;;95.25;35.83;;;;;;;3.09;96.55;102245.91;5034819;28;20542;-74
2022/12/02 00:18:12;;;;;;;96.57;35.28;;;;;;;3.09;96.71;102239.03;5038891;28;20501;-73
2022/12/02 00:20:38;;;;;;;97.25;35.30;;;;;;;3.10;97.00;102234.75;5036756;28;20061;-73
2022/12/02 00:23:04;;;;;;;94.97;34.63;;;;;;;3.15;96.86;102230.22;5040183;28;20475;-74
2022/12/02 00:25:30;;;;;;;94.65;34.67;;;;;;;3.21;95.62;102222.25;5038405;28;20610;-73
2022/12/02 00:27:56;;;;;;;100.47;36.28;;;;;;;3.12;95.75;102222.69;5039655;28;20041;-73
2022/12/02 00:30:22;;;;;;;98.18;35.55;;;;;;;3.10;95.10;102227.88;5021263;28;20480;-72
2022/12/02 00:32:48;;;;;;;104.95;35.85;;;;;;;3.04;95.44;102217.91;5038483;28;20029;-73
2022/12/02 00:35:14;;;;;;;97.05;35.38;;;;;;;3.05;95.54;102223.88;5021857;28;20033;-73
2022/12/02 00:37:40;;;;;;;99.05;34.85;;;;;;;3.06;95.50;102217.84;5009169;28;20029;-73
2022/12/02 00:40:06;;;;;;;104.43;35.80;;;;;;;3.04;95.56;102217.91;5025205;28;20541;-73
2022/12/02 00:42:31;;;;;;;93.32;33.88;;;;;;;3.02;96.30;102213.78;5022201;28;20039;-73
2022/12/02 00:47:41;;;;;;;108.07;35.20;;;;;;;2.98;95.90;102207.97;5034342;28;20047;-73
2022/12/02 00:50:07;;;;;;;92.95;34.40;;;;;;;3.02;95.52;102211.22;5026736;28;20422;-73
2022/12/02 00:52:32;;;;;;;94.97;33.92;;;;;;;3.08;94.44;102205.78;5024504;28;20033;-73
2022/12/02 00:55:01;;;;;;;107.82;34.42;;;;;;;3.02;94.53;102200.97;5026141;28;20076;-73
2022/12/02 00:57:26;;;;;;;100.55;34.35;;;;;;;2.96;95.28;102209.78;5037360;28;20575;-73
2022/12/02 00:59:52;;;;;;;97.40;34.50;;;;;;;2.90;96.26;102213.44;5025936;28;20115;-73
2022/12/02 01:02:17;;;;;;;94.32;33.17;;;;;;;2.88;97.18;102202.44;5007453;28;20065;-73
2022/12/02 01:04:43;;;;;;;96.00;34.95;;;;;;;2.96;95.95;102199.53;5023801;28;20037;-73
2022/12/02 01:07:08;;;;;;;93.43;32.80;;;;;;;2.96;96.47;102196.09;5037103;28;20704;-73
2022/12/02 01:09:36;;;;;;;86.13;32.20;;;;;;;2.93;96.88;102203.03;5021704;28;20324;-73
2022/12/02 01:12:02;;;;;;;108.35;36.38;;;;;;;3.00;96.76;102198.47;5036528;28;20052;-73
2022/12/02 01:14:27;;;;;;;104.18;35.25;;;;;;;2.96;97.05;102199.53;5043977;28;20037;-73
2022/12/02 01:16:56;;;;;;;97.68;34.00;;;;;;;3.06;97.10;102189.66;5021915;28;20055;-74
2022/12/02 01:19:21;;;;;;;102.68;35.58;;;;;;;3.03;97.07;102187.22;5025054;28;20039;-73
2022/12/02 01:21:47;;;;;;;92.63;34.47;;;;;;;2.99;96.73;102190.84;5024505;28;20470;-73
2022/12/02 01:24:13;;;;;;;98.35;33.47;;;;;;;2.93;96.90;102191.97;5045030;28;20029;-73
2022/12/02 01:26:38;;;;;;;99.05;35.10;;;;;;;2.96;96.51;102194.41;5028223;28;20102;-72
2022/12/02 01:29:06;;;;;;;92.78;33.17;;;;;;;2.95;96.53;102181.66;5039321;28;20045;-73
2022/12/02 01:31:32;;;;;;;81.20;33.20;;;;;;;2.98;96.27;102178.94;5040381;28;20036;-73
2022/12/02 01:33:58;;;;;;;99.10;33.63;;;;;;;2.89;96.61;102183.59;5039040;28;20033;-73
2022/12/02 01:36:24;;;;;;;99.68;34.92;;;;;;;2.85;97.22;102184.63;5018129;28;20041;-73
2022/12/02 01:38:51;;;;;;;112.82;36.72;;;;;;;2.83;97.26;102183.06;5022347;28;20059;-73
2022/12/02 01:41:17;;;;;;;112.03;36.58;;;;;;;2.77;97.17;102184.19;5020131;28;20467;-73
2022/12/02 01:43:42;;;;;;;106.32;35.85;;;;;;;2.72;97.90;102196.38;5032987;28;20064;-73
2022/12/02 01:46:08;;;;;;;113.00;37.13;;;;;;;2.72;97.95;102196.38;5032852;28;20055;-73
2022/12/02 01:48:36;;;;;;;109.10;36.53;;;;;;;2.70;98.44;102198.16;5036488;28;20047;-73
2022/12/02 01:51:03;;;;;;;114.97;36.25;;;;;;;2.80;98.75;102196.00;5033026;28;20303;-73
2022/12/02 01:53:29;;;;;;;110.10;38.97;;;;;;;2.76;98.02;102200.44;5017883;28;20032;-73
2022/12/02 01:55:55;;;;;;;117.15;37.83;;;;;;;2.66;98.47;102206.91;5015355;28;20132;-73
2022/12/02 01:58:24;;;;;;;113.65;36.63;;;;;;;2.64;98.43;102201.84;5032514;28;20025;-73
2022/12/02 02:00:50;;;;;;;108.70;35.17;;;;;;;2.67;98.75;102191.44;5035448;28;20092;-73
2022/12/02 02:03:16;;;;;;;105.75;34.50;;;;;;;2.68;98.84;102192.28;5017639;28;20017;-73
2022/12/02 02:05:41;;;;;;;115.90;37.08;;;;;;;2.65;98.33;102198.38;5019786;28;20049;-73
2022/12/02 02:08:11;;;;;;;108.50;37.00;;;;;;;2.62;98.93;102195.97;5016702;28;20032;-73
2022/12/02 02:10:38;;;;;;;114.97;37.75;;;;;;;2.63;98.22;102187.34;5018407;28;20683;-73
2022/12/02 02:13:05;;;;;;;109.25;36.30;;;;;;;2.60;98.59;102194.34;5018425;28;20021;-73
2022/12/02 02:15:32;;;;;;;114.05;36.28;;;;;;;2.59;98.91;102180.72;5020131;28;20077;-73
2022/12/02 02:17:58;;;;;;;107.60;36.88;;;;;;;2.62;98.71;102180.59;5043381;28;20075;-72
2022/12/02 02:20:25;;;;;;;111.10;35.97;;;;;;;2.61;99.27;102178.09;5022047;28;20029;-73
2022/12/02 02:23:14;;;;;;;110.43;37.33;;;;;;;2.61;99.21;102175.53;5020684;28;20029;-73
2022/12/02 02:25:46;;;;;;;109.05;35.03;;;;;;;2.64;99.43;102180.53;5037720;28;20044;-73
2022/12/02 02:28:13;;;;;;;112.88;35.15;;;;;;;2.63;99.55;102183.97;5025349;28;20036;-73
2022/12/02 02:30:39;;;;;;;114.28;37.50;;;;;;;2.59;99.82;102172.22;5042176;28;20075;-73
2022/12/02 02:33:08;;;;;;;102.55;35.40;;;;;;;2.60;99.76;102169.59;5039416;28;20151;-73
2022/12/02 02:35:35;;;;;;;101.50;32.58;;;;;;;2.65;99.74;102161.69;5036426;28;20439;-73
2022/12/02 02:38:04;;;;;;;122.10;38.83;;;;;;;2.58;99.21;102167.97;5027003;28;20771;-73
2022/12/02 02:40:33;;;;;;;110.88;35.40;;;;;;;2.52;99.25;102166.53;5037088;28;20053;-73
2022/12/02 02:43:01;;;;;;;116.03;38.25;;;;;;;2.62;98.48;102157.53;5040897;28;20158;-73
2022/12/02 02:45:32;;;;;;;99.45;34.08;;;;;;;2.58;98.55;102160.28;5024387;28;20029;-73
2022/12/02 02:48:01;;;;;;;110.80;36.55;;;;;;;2.62;98.93;102156.69;5025897;28;20385;-73
2022/12/02 02:50:29;;;;;;;118.05;35.72;;;;;;;2.59;98.60;102161.97;5021372;28;20128;-74
2022/12/02 02:52:54;;;;;;;114.60;34.70;;;;;;;2.48;98.73;102160.72;5025677;28;20033;-73
2022/12/02 02:55:23;;;;;;;117.78;36.35;;;;;;;2.55;98.86;102158.72;5022625;28;20047;-73
2022/12/02 02:57:50;;;;;;;101.03;35.28;;;;;;;2.49;98.56;102156.44;5020112;28;20033;-73
2022/12/02 03:00:18;;;;;;;117.80;35.50;;;;;;;2.49;98.65;102157.28;5024479;28;20079;-72
2022/12/02 03:02:48;;;;;;;118.05;38.03;;;;;;;2.46;98.46;102159.97;5040781;28;20033;-73
2022/12/02 03:05:17;;;;;;;114.57;37.88;;;;;;;2.34;98.47;102150.28;5009071;28;20131;-73
2022/12/02 03:07:44;;;;;;;110.88;36.45;;;;;;;2.40;98.55;102150.00;5022506;28;20044;-72
2022/12/02 03:10:10;;;;;;;99.68;33.33;;;;;;;2.37;98.75;102150.13;5003393;28;20059;-73
2022/12/02 03:12:36;;;;;;;103.88;34.38;;;;;;;2.39;98.98;102148.34;5020029;28;20033;-73
2022/12/02 03:15:03;;;;;;;100.28;34.10;;;;;;;2.42;98.92;102148.19;5039930;28;20041;-73
2022/12/02 03:17:28;;;;;;;107.55;35.17;;;;;;;2.42;99.08;102147.38;5022968;28;20053;-73
2022/12/02 03:19:54;;;;;;;105.95;35.30;;;;;;;2.43;98.37;102143.91;5047734;28;20087;-73
2022/12/02 03:22:20;;;;;;;98.18;33.40;;;;;;;2.39;98.56;102140.66;5037509;28;20527;-73
2022/12/02 03:24:45;;;;;;;106.07;34.38;;;;;;;2.40;99.07;102139.75;5031085;28;20048;-73
2022/12/02 03:27:12;;;;;;;104.00;35.65;;;;;;;2.41;98.92;102140.59;5042946;28;20044;-73
2022/12/02 03:29:39;;;;;;;101.65;34.83;;;;;;;2.41;99.07;102127.78;5029345;28;20033;-73
2022/12/02 03:32:04;;;;;;;98.30;34.97;;;;;;;2.57;96.76;102135.59;5028012;28;20051;-72
2022/12/02 03:34:30;;;;;;;105.05;34.65;;;;;;;2.48;96.58;102131.72;5032366;28;20028;-73
2022/12/02 03:36:57;;;;;;;100.30;33.25;;;;;;;2.39;97.15;102124.47;5023114;28;20154;-73
2022/12/02 03:39:22;;;;;;;96.82;32.00;;;;;;;2.32;97.57;102129.06;5026886;28;20037;-73
2022/12/02 03:41:49;;;;;;;100.65;32.38;;;;;;;2.41;97.17;102122.66;5041017;28;20061;-73
2022/12/02 03:44:15;;;;;;;102.30;34.22;;;;;;;2.42;97.21;102120.03;5024908;28;20040;-73
2022/12/02 03:46:41;;;;;;;96.50;33.70;;;;;;;2.40;97.57;102118.47;5021766;28;20041;-73
2022/12/02 03:49:07;;;;;;;90.63;31.65;;;;;;;2.40;96.60;102113.34;5024462;28;20033;-73
2022/12/02 03:51:33;;;;;;;99.57;33.10;;;;;;;2.34;97.14;102106.78;5019813;28;20049;-74
2022/12/02 03:53:59;;;;;;;93.95;30.70;;;;;;;2.30;97.10;102106.09;5042545;28;20027;-73
2022/12/02 03:56:25;;;;;;;89.80;31.40;;;;;;;2.34;97.32;102111.88;5034668;28;20036;-73
2022/12/02 03:58:52;;;;;;;96.72;31.38;;;;;;;2.32;97.12;102101.72;5021634;28;20060;-73
2022/12/02 04:01:19;;;;;;;85.18;28.15;;;;;;;2.27;97.60;102110.50;5023270;28;20076;-73
2022/12/02 04:03:45;;;;;;;82.80;28.98;;;;;;;2.34;97.16;102106.78;5040710;28;20037;-73
2022/12/02 04:06:11;;;;;;;89.45;30.60;;;;;;;2.30;97.05;102103.53;5042078;28;20059;-73
2022/12/02 04:08:37;;;;;;;85.38;28.80;;;;;;;2.33;97.44;102107.66;5035968;28;20035;-73
2022/12/02 04:11:03;;;;;;;84.05;31.08;;;;;;;2.31;97.57;102107.72;5040787;28;20112;-73
2022/12/02 04:13:29;;;;;;;80.22;29.13;;;;;;;2.36;97.67;102104.16;5028401;28;20144;-73
2022/12/02 04:15:54;;;;;;;77.75;27.25;;;;;;;2.39;97.62;102103.97;5043613;28;20037;-73
2022/12/02 04:18:20;;;;;;;84.65;27.55;;;;;;;2.43;96.76;102093.53;5046735;28;20039;-73
2022/12/02 04:20:46;;;;;;;76.22;26.20;;;;;;;2.43;95.54;102092.69;5042107;28;20752;-73
2022/12/02 04:23:11;;;;;;;84.93;27.75;;;;;;;2.39;96.50;102093.75;5024078;28;20568;-73
2022/12/02 04:25:37;;;;;;;82.18;27.42;;;;;;;2.45;97.00;102089.19;5023866;28;20045;-72
2022/12/02 04:28:02;;;;;;;84.10;28.88;;;;;;;2.43;96.80;102090.13;5032785;28;20071;-73
2022/12/02 04:30:28;;;;;;;77.47;25.70;;;;;;;2.45;97.01;102086.63;5043679;28;20120;-73
2022/12/02 04:32:54;;;;;;;86.47;29.25;;;;;;;2.40;97.31;102088.56;5043339;28;20503;-73
2022/12/02 04:35:19;;;;;;;87.93;30.00;;;;;;;2.40;97.88;102083.44;5037411;28;20033;-73
2022/12/02 04:37:45;;;;;;;80.97;27.75;;;;;;;2.39;98.17;102092.00;5026311;28;20403;-73
2022/12/02 04:40:11;;;;;;;82.05;27.75;;;;;;;2.41;98.52;102087.66;5043659;28;20446;-74
2022/12/02 04:42:36;;;;;;;80.15;27.73;;;;;;;2.41;98.47;102082.56;5043655;28;20045;-73
2022/12/02 04:45:03;;;;;;;82.88;26.20;;;;;;;2.43;98.89;102080.75;5018682;28;20040;-73
2022/12/02 04:47:30;;;;;;;79.28;26.45;;;;;;;2.44;98.91;102069.59;5040967;28;20041;-73
2022/12/02 04:49:55;;;;;;;84.45;27.15;;;;;;;2.47;99.06;102079.69;5040507;28;20946;-73
2022/12/02 04:52:21;;;;;;;73.63;28.05;;;;;;;2.48;98.82;102083.91;5025684;28;20053;-74
2022/12/02 04:54:46;;;;;;;83.68;26.65;;;;;;;2.46;98.71;102074.63;5025192;28;20067;-72
2022/12/02 04:57:12;;;;;;;78.72;27.33;;;;;;;2.47;98.66;102064.34;5026200;28;20041;-73
2022/12/02 04:59:37;;;;;;;84.95;27.67;;;;;;;2.53;97.55;102070.91;5044547;28;20021;-72
2022/12/02 05:02:05;;;;;;;80.00;28.77;;;;;;;2.47;97.19;102069.44;5025121;28;20427;-73
2022/12/02 05:04:31;;;;;;;82.80;27.65;;;;;;;2.47;97.43;102056.66;5042889;28;20032;-73
2022/12/02 05:06:56;;;;;;;89.55;27.58;;;;;;;2.43;97.74;102059.41;5041857;28;20083;-73
2022/12/02 05:09:22;;;;;;;76.43;28.33;;;;;;;2.40;98.18;102068.06;5023153;28;20033;-73
2022/12/02 05:11:47;;;;;;;77.97;26.58;;;;;;;2.40;98.02;102059.56;5025889;28;20048;-74
2022/12/02 05:14:13;;;;;;;77.28;25.38;;;;;;;2.40;98.09;102057.00;5039717;28;20033;-73
2022/12/02 05:16:38;;;;;;;81.65;27.40;;;;;;;2.39;98.75;102058.72;5037981;28;20176;-73
2022/12/02 05:19:04;;;;;;;77.85;27.92;;;;;;;2.43;99.00;102051.72;5019636;28;20033;-73
2022/12/02 05:21:29;;;;;;;85.18;29.00;;;;;;;2.42;98.24;102066.28;5018814;28;20617;-73
2022/12/02 05:23:55;;;;;;;77.30;25.38;;;;;;;2.42;98.78;102058.59;5039825;28;20031;-73
2022/12/02 05:26:20;;;;;;;80.63;25.15;;;;;;;2.45;98.92;102048.22;5019033;28;20041;-73
2022/12/02 05:28:46;;;;;;;75.70;25.23;;;;;;;2.46;98.56;102043.91;5022988;28;20391;-73
2022/12/02 05:31:11;;;;;;;89.13;28.50;;;;;;;2.51;98.07;102047.91;5021609;28;20048;-73
2022/12/02 05:33:36;;;;;;;91.40;28.60;;;;;;;2.44;97.26;102043.97;5038932;28;20033;-72
2022/12/02 05:36:02;;;;;;;77.88;28.70;;;;;;;2.44;97.57;102046.53;5035453;28;20571;-73
2022/12/02 05:38:28;;;;;;;91.38;27.15;;;;;;;2.38;97.72;102044.28;5018327;28;20036;-73
2022/12/02 05:40:55;;;;;;;84.88;28.02;;;;;;;2.47;97.49;102038.72;5031994;28;20067;-73
2022/12/02 05:43:23;;;;;;;81.25;27.20;;;;;;;2.45;98.07;102035.41;5034849;28;20772;-73
2022/12/02 05:45:48;;;;;;;81.07;26.63;;;;;;;2.43;98.17;102036.38;5037674;28;20548;-73
2022/12/02 05:48:17;;;;;;;87.20;29.45;;;;;;;2.42;97.59;102032.16;5020641;28;20033;-73
2022/12/02 05:50:44;;;;;;;89.85;29.50;;;;;;;2.45;97.76;102032.84;5039460;28;20044;-73
2022/12/02 05:53:30;;;;;;;78.65;26.70;;;;;;;2.38;98.08;102031.47;5040427;28;20099;-73
2022/12/02 05:55:56;;;;;;;86.00;27.42;;;;;;;2.38;97.86;102040.91;5016771;28;20045;-73
2022/12/02 05:58:22;;;;;;;87.40;26.80;;;;;;;2.37;98.21;102046.91;5022982;28;20024;-73
2022/12/02 06:00:56;;;;;;;97.60;27.60;;;;;;;2.35;98.35;102044.41;5023504;28;20053;-73
2022/12/02 06:03:22;;;;;;;85.55;28.23;;;;;;;2.31;98.66;102037.78;5043149;28;20647;-72
2022/12/02 06:05:48;;;;;;;80.38;27.75;;;;;;;2.37;98.79;102044.34;5041527;28;20087;-73
2022/12/02 06:08:22;;;;;;;91.93;27.88;;;;;;;2.44;98.96;102033.75;5025976;28;20035;-73
2022/12/02 06:10:50;;;;;;;92.80;30.20;;;;;;;2.40;99.41;102028.84;5039031;28;20049;-73
2022/12/02 06:13:22;;;;;;;83.75;28.27;;;;;;;2.36;99.73;102030.72;5036081;28;20562;-73
2022/12/02 06:15:50;;;;;;;85.45;28.80;;;;;;;2.48;99.68;102035.25;5026419;28;20051;-73
2022/12/02 06:18:27;;;;;;;92.00;28.08;;;;;;;2.42;98.57;102034.72;5007881;28;20036;-72
2022/12/02 06:20:56;;;;;;;87.53;27.48;;;;;;;2.44;98.76;102041.41;5022525;28;20057;-73
2022/12/02 06:23:25;;;;;;;91.07;28.15;;;;;;;2.39;99.37;102045.09;5004688;28;20036;-73
2022/12/02 06:25:52;;;;;;;86.13;27.73;;;;;;;2.38;99.15;102043.47;5023009;28;20135;-73
2022/12/02 06:28:37;;;;;;;91.68;29.00;;;;;;;2.37;99.96;102040.03;5022427;28;20033;-73
2022/12/02 06:31:15;;;;;;;89.45;27.98;;;;;;;2.37;99.79;102042.59;5037007;28;20079;-73
2022/12/02 06:33:42;;;;;;;95.22;28.63;;;;;;;2.34;100.00;102045.34;5023765;28;20060;-73
2022/12/02 06:36:14;;;;;;;98.07;28.17;;;;;;;2.37;99.48;102041.78;5021776;28;20499;-73
2022/12/02 06:38:53;;;;;;;90.75;27.50;;;;;;;2.33;99.55;102041.09;5019519;28;20033;-73
2022/12/02 06:41:23;;;;;;;98.55;28.77;;;;;;;2.34;99.72;102038.47;5023749;28;20055;-72
2022/12/02 06:46:36;;;;;;;90.72;28.05;;;;;;;2.29;100.00;102037.03;5044578;28;20042;-73
2022/12/02 06:49:22;;;;;;;94.15;27.13;;;;;;;2.33;100.00;102034.25;5025111;28;20029;-73
2022/12/02 06:52:00;;;;;;;92.10;26.80;;;;;;;2.32;100.00;102040.28;5004582;28;20040;-73
2022/12/02 06:54:29;;;;;;;88.53;27.48;;;;;;;2.38;100.00;102041.72;5037440;28;20025;-72
2022/12/02 06:56:56;;;;;;;86.03;27.38;;;;;;;2.41;100.00;102033.91;5042528;28;20044;-73
2022/12/02 06:59:23;;;;;;;85.57;27.85;;;;;;;2.38;99.99;102033.22;5022661;28;20033;-73
2022/12/02 07:01:54;;;;;;;84.45;27.02;;;;;;;2.37;100.00;102028.97;5039165;28;20076;-73
2022/12/02 07:04:22;;;;;;;88.05;26.88;;;;;;;2.34;100.00;102027.41;5022738;28;20048;-73
2022/12/02 07:06:55;;;;;;;83.35;27.00;;;;;;;2.31;100.00;102032.66;5042004;28;20056;-72
2022/12/02 07:09:38;;;;;;;95.68;26.63;;;;;;;2.31;100.00;102036.03;5040327;28;20032;-73
2022/12/02 07:12:19;;;;;;;81.95;25.85;;;;;;;2.36;100.00;102038.41;5039235;28;20484;-73
2022/12/02 07:14:55;;;;;;;90.40;27.02;;;;;;;2.39;100.00;102043.34;5018468;28;20151;-73
2022/12/02 07:17:34;;;;;;;90.03;27.17;;;;;;;2.41;100.00;102035.63;5033639;28;20160;-73
2022/12/02 07:20:06;;;;;;;87.13;26.00;;;;;;;2.37;100.00;102047.72;5006771;28;20073;-73
2022/12/02 07:22:35;;;;;;;75.15;25.85;;;;;;;2.38;100.00;102041.72;5036259;28;20072;-73
2022/12/02 07:25:14;;;;;;;65.10;23.58;;;;;;;2.40;100.00;102039.09;5014277;28;20107;-73
2022/12/02 07:27:43;;;;;;;86.93;28.20;;;;;;;2.40;100.00;102037.34;5020668;28;20482;-73
2022/12/02 07:30:30;;;;;;;69.13;23.90;;;;;;;2.43;100.00;102039.78;5016863;28;21073;-73
2022/12/02 07:32:56;;;;;;;71.72;23.98;;;;;;;2.39;100.00;102043.34;5036795;28;20511;-73
2022/12/02 07:35:23;;;;;;;57.20;21.92;;;;;;;2.35;100.00;102044.41;5021567;28;20550;-73
2022/12/02 07:37:49;;;;;;;64.43;24.00;;;;;;;2.34;100.00;102046.16;5001339;28;20371;-73
2022/12/02 07:40:16;;;;;;;69.85;24.65;;;;;;;2.50;100.00;102048.81;5035773;28;20566;-73
2022/12/02 07:42:42;;;;;;;63.38;20.48;;;;;;;2.37;100.00;102042.59;5035018;28;20029;-73
2022/12/02 07:45:09;;;;;;;63.25;20.65;;;;;;;2.35;100.00;102039.28;5037208;28;20034;-72
2022/12/02 07:47:35;;;;;;;67.20;22.75;;;;;;;2.38;100.00;102044.28;5039256;28;20460;-73
2022/12/02 07:50:00;;;;;;;81.32;25.55;;;;;;;2.33;100.00;102043.66;5045476;28;20041;-72
2022/12/02 07:52:26;;;;;;;67.03;23.70;;;;;;;2.32;100.00;102042.84;5040000;28;20092;-73
2022/12/02 07:54:53;;;;;;;66.80;20.88;;;;;;;2.32;100.00;102040.28;5037996;28;20038;-72
2022/12/02 07:57:19;;;;;;;60.95;21.77;;;;;;;2.30;100.00;102043.81;5025417;28;20084;-73
2022/12/02 07:59:45;;;;;;;73.57;25.85;;;;;;;2.45;100.00;102030.28;5042396;28;20114;-73
2022/12/02 08:02:10;;;;;;;69.35;21.65;;;;;;;2.43;100.00;102041.50;5035873;28;20056;-73
2022/12/02 08:04:36;;;;;;;73.95;23.75;;;;;;;2.36;100.00;102038.41;5041169;28;20091;-73
2022/12/02 08:07:01;;;;;;;81.90;24.42;;;;;;;2.34;100.00;102030.78;5025383;28;20033;-72
2022/12/02 08:09:29;;;;;;;85.13;24.55;;;;;;;2.38;100.00;102041.72;5047532;28;20106;-73
2022/12/02 08:11:55;;;;;;;76.97;24.38;;;;;;;2.32;100.00;102034.34;5024772;28;20136;-73
2022/12/02 08:14:20;;;;;;;70.88;24.17;;;;;;;2.37;100.00;102039.22;5008437;28;20029;-72
2022/12/02 08:16:46;;;;;;;83.28;23.73;;;;;;;2.28;100.00;102035.34;5024702;28;20054;-73
2022/12/02 08:19:11;;;;;;;92.00;26.17;;;;;;;2.33;100.00;102023.19;5025519;28;20123;-73
2022/12/02 08:21:39;;;;;;;87.10;26.55;;;;;;;2.32;100.00;102035.16;5025094;28;20059;-72
2022/12/02 08:24:05;;;;;;;90.35;26.75;;;;;;;2.30;100.00;102038.69;5029918;28;20029;-73
2022/12/02 08:26:30;;;;;;;100.22;29.38;;;;;;;2.26;100.00;102035.44;5043535;28;20068;-73
2022/12/02 08:28:56;;;;;;;111.95;29.00;;;;;;;2.22;100.00;102035.66;5028450;28;20471;-73
2022/12/02 08:31:21;;;;;;;112.30;30.25;;;;;;;2.23;100.00;102035.59;5020598;28;20055;-72
2022/12/02 08:33:48;;;;;;;122.65;32.22;;;;;;;2.24;100.00;102031.28;5044939;28;20060;-72
2022/12/02 08:36:14;;;;;;;105.97;29.88;;;;;;;2.19;100.00;102036.63;5026119;28;20053;-72
2022/12/02 08:38:40;;;;;;;105.90;31.95;;;;;;;2.17;100.00;102035.03;5044375;28;20565;-73
2022/12/02 08:41:06;;;;;;;117.38;31.63;;;;;;;2.20;100.00;102034.91;5026157;28;20045;-73
2022/12/02 08:43:31;;;;;;;118.03;34.67;;;;;;;2.30;100.00;102036.16;5027618;28;20060;-72
2022/12/02 08:45:57;;;;;;;110.88;30.40;;;;;;;2.33;100.00;102035.97;5010591;28;20033;-72
2022/12/02 08:48:22;;;;;;;110.60;31.52;;;;;;;2.26;100.00;102037.16;5044742;28;20029;-73
2022/12/02 08:50:48;;;;;;;105.63;32.08;;;;;;;2.22;100.00;102031.34;5019419;28;20050;-73
2022/12/02 08:53:13;;;;;;;104.57;30.83;;;;;;;2.25;100.00;102031.22;5028644;28;20033;-73
2022/12/02 08:55:39;;;;;;;102.95;30.75;;;;;;;2.28;100.00;102040.47;5025332;28;20048;-73
2022/12/02 08:58:04;;;;;;;116.90;33.70;;;;;;;2.28;100.00;102036.22;5040071;28;20029;-73
2022/12/02 09:00:30;;;;;;;103.65;31.50;;;;;;;2.39;100.00;102030.56;5040896;28;20049;-73
2022/12/02 09:02:56;;;;;;;113.60;33.63;;;;;;;2.29;100.00;102037.03;5037936;28;20392;-73
2022/12/02 09:05:21;;;;;;;115.70;34.35;;;;;;;2.22;100.00;102035.66;5029429;28;20044;-73
2022/12/02 09:07:47;;;;;;;117.43;32.78;;;;;;;2.28;100.00;102031.09;5023563;28;20392;-73
2022/12/02 09:10:13;;;;;;;116.85;35.97;;;;;;;2.26;100.00;102038.00;5038898;28;20028;-73
2022/12/02 09:12:39;;;;;;;102.43;32.80;;;;;;;2.22;100.00;102040.78;5036009;28;20123;-73
2022/12/02 09:15:05;;;;;;;103.47;34.15;;;;;;;2.28;100.00;102036.22;5025070;28;20163;-73
2022/12/02 09:17:31;;;;;;;114.13;34.75;;;;;;;2.26;100.00;102030.34;5004449;28;20069;-73
2022/12/02 09:19:56;;;;;;;102.85;31.45;;;;;;;2.32;100.00;102034.34;5019420;28;20556;-73
2022/12/02 09:22:22;;;;;;;117.35;36.40;;;;;;;2.33;100.00;102039.34;5017229;28;20053;-73
2022/12/02 09:24:48;;;;;;;109.22;35.92;;;;;;;2.43;100.00;102036.38;5023516;28;20270;-73
2022/12/02 09:27:14;;;;;;;109.35;34.50;;;;;;;2.47;100.00;102031.03;5041951;28;20045;-73
2022/12/02 09:29:39;;;;;;;102.57;33.72;;;;;;;2.44;100.00;102025.25;5039222;28;20040;-73
2022/12/02 09:32:05;;;;;;;107.25;34.40;;;;;;;2.44;100.00;102026.06;5021593;28;20057;-73
2022/12/02 09:34:31;;;;;;;104.60;34.13;;;;;;;2.44;100.00;102018.38;5026628;28;20064;-73
2022/12/02 09:36:56;;;;;;;98.35;33.13;;;;;;;2.45;100.00;102032.00;5008418;28;20037;-73
2022/12/02 09:39:22;;;;;;;106.05;31.27;;;;;;;2.41;100.00;102025.38;5040437;28;20442;-73
2022/12/02 09:41:47;;;;;;;102.13;31.65;;;;;;;2.40;100.00;102023.72;5024821;28;20061;-72
2022/12/02 09:44:13;;;;;;;99.72;33.17;;;;;;;2.53;100.00;102019.69;5043747;28;20028;-73
2022/12/02 09:46:38;;;;;;;102.78;32.47;;;;;;;2.48;100.00;102014.75;5026683;28;20111;-72
2022/12/02 09:49:04;;;;;;;101.97;34.58;;;;;;;2.44;100.00;102015.00;5022914;28;20032;-72
2022/12/02 09:51:31;;;;;;;110.75;34.00;;;;;;;2.44;100.00;102020.94;5045370;28;20192;-73
2022/12/02 09:53:57;;;;;;;118.32;36.22;;;;;;;2.39;100.00;102004.97;5019681;28;20029;-72
2022/12/02 09:56:23;;;;;;;97.78;31.05;;;;;;;2.47;100.00;102008.00;5026498;28;20459;-72
2022/12/02 09:58:50;;;;;;;100.50;31.85;;;;;;;2.52;100.00;102003.50;5044634;28;20025;-72
2022/12/02 10:01:16;;;;;;;104.47;33.95;;;;;;;2.63;100.00;102012.38;5025910;28;20060;-72
2022/12/02 10:03:44;;;;;;;105.88;34.20;;;;;;;2.62;100.00;102010.69;5042712;28;20037;-73
2022/12/02 10:06:22;;;;;;;101.60;31.92;;;;;;;2.58;100.00;102011.75;5007563;28;20049;-72
2022/12/02 10:08:48;;;;;;;98.72;35.20;;;;;;;2.61;100.00;102014.19;5026762;28;20040;-72
2022/12/02 10:11:21;;;;;;;95.57;31.80;;;;;;;2.60;100.00;102015.94;5025067;28;20524;-72
2022/12/02 10:13:47;;;;;;;101.13;33.15;;;;;;;2.60;100.00;102015.94;5040352;28;20047;-72
2022/12/02 10:16:13;;;;;;;92.50;32.80;;;;;;;2.51;100.00;102012.06;5023790;28;20045;-73
2022/12/02 10:18:39;;;;;;;99.43;33.10;;;;;;;2.52;100.00;102010.31;5024684;28;20368;-73
2022/12/02 10:21:05;;;;;;;94.93;34.13;;;;;;;2.49;100.00;102006.19;5040803;28;20097;-73
2022/12/02 10:23:31;;;;;;;92.53;31.58;;;;;;;2.47;100.00;102009.75;5020745;28;20056;-72
2022/12/02 10:26:06;;;;;;;89.60;32.90;;;;;;;2.53;100.00;102007.69;5038070;28;20505;-73
2022/12/02 10:28:34;;;;;;;91.20;30.50;;;;;;;2.50;100.00;102010.41;5010704;28;20036;-73
2022/12/02 10:31:03;;;;;;;88.28;31.40;;;;;;;2.48;100.00;102009.63;5036173;28;20496;-72
2022/12/02 10:33:34;;;;;;;83.80;29.40;;;;;;;2.51;100.00;102006.13;5038616;28;20029;-72
2022/12/02 10:36:00;;;;;;;85.07;30.10;;;;;;;2.55;100.00;102005.06;5022165;28;20061;-72
2022/12/02 10:42:27;;;;;;;91.50;29.85;;;;;;;2.68;99.75;101992.50;5039536;28;20139;-72
2022/12/02 10:45:14;;;;;;;85.50;30.45;;;;;;;2.63;99.17;101989.31;5037474;28;20040;-72
2022/12/02 10:47:40;;;;;;;95.00;28.98;;;;;;;2.52;99.64;101988.13;5025477;28;20045;-72
2022/12/02 10:50:18;;;;;;;80.60;29.13;;;;;;;2.50;99.58;101989.91;5038908;28;20064;-72
2022/12/02 10:52:52;;;;;;;89.00;31.35;;;;;;;2.49;99.03;101987.44;5041548;28;20076;-71
2022/12/02 10:55:18;;;;;;;84.80;31.08;;;;;;;2.44;99.61;101989.38;5023031;28;20648;-72
2022/12/02 10:57:45;;;;;;;90.32;30.63;;;;;;;2.48;99.05;101986.59;5010180;28;20045;-71
2022/12/02 11:00:23;;;;;;;82.15;30.20;;;;;;;2.57;98.99;101981.94;5024601;28;20041;-72
2022/12/02 11:02:54;;;;;;;77.32;29.38;;;;;;;2.52;98.67;101982.16;5024377;28;20048;-72
2022/12/02 11:05:30;;;;;;;80.88;28.80;;;;;;;2.55;97.96;101982.00;5012516;28;20036;-72
2022/12/02 11:08:03;;;;;;;78.60;29.10;;;;;;;2.57;98.82;101985.34;5023853;28;20032;-71
2022/12/02 11:10:37;;;;;;;73.38;28.90;;;;;;;2.58;98.95;101981.88;5023870;28;20041;-72
2022/12/02 11:13:12;;;;;;;74.88;29.75;;;;;;;2.61;98.67;101980.88;5037470;28;20107;-72
2022/12/02 11:15:51;;;;;;;78.28;31.13;;;;;;;2.55;98.29;101976.91;5044096;28;20103;-72
2022/12/02 11:18:29;;;;;;;86.53;30.35;;;;;;;2.60;98.48;101977.50;5041961;28;20380;-72
2022/12/02 11:21:26;;;;;;;87.22;30.38;;;;;;;2.63;97.58;101985.03;5043408;28;20057;-72
2022/12/02 11:24:22;;;;;;;79.25;31.10;;;;;;;2.65;98.08;101977.25;5040462;28;20068;-72